sensor_id;sensor_type;location;lat;lon;timestamp;P1;durP1;ratioP1;P2;durP2;ratioP2
12181;SDS011;6154;51.550;12.138;2023-06-14T00:00:06;1.90;;;1.12;;
12181;SDS011;6154;51.550;12.138;2023-06-14T00:02:35;2.47;;;1.10;;
12181;SDS011;6154;51.550;12.138;2023-06-14T00:05:03;1.27;;;1.10;;
12181;SDS011;6154;51.550;12.138;2023-06-14T00:07:35;1.65;;;1.10;;
12181;SDS011;6154;51.550;12.138;2023-06-14T00:10:07;1.00;;;0.90;;
12181;SDS011;6154;51.550;12.138;2023-06-14T00:12:36;1.48;;;1.17;;
12181;SDS011;6154;51.550;12.138;2023-06-14T00:15:05;1.20;;;0.90;;
12181;SDS011;6154;51.550;12.138;2023-06-14T00:17:36;1.08;;;0.98;;
12181;SDS011;6154;51.550;12.138;2023-06-14T00:20:06;1.40;;;0.88;;
12181;SDS011;6154;51.550;12.138;2023-06-14T00:22:36;1.23;;;1.08;;
12181;SDS011;6154;51.550;12.138;2023-06-14T00:25:07;1.62;;;1.00;;
12181;SDS011;6154;51.550;12.138;2023-06-14T00:27:54;2.83;;;1.05;;
12181;SDS011;6154;51.550;12.138;2023-06-14T00:30:24;1.08;;;0.93;;
12181;SDS011;6154;51.550;12.138;2023-06-14T00:32:57;2.67;;;1.12;;
12181;SDS011;6154;51.550;12.138;2023-06-14T00:35:26;3.03;;;1.25;;
12181;SDS011;6154;51.550;12.138;2023-06-14T00:37:54;1.20;;;1.00;;
12181;SDS011;6154;51.550;12.138;2023-06-14T00:40:24;2.45;;;1.17;;
12181;SDS011;6154;51.550;12.138;2023-06-14T00:42:52;2.22;;;1.60;;
12181;SDS011;6154;51.550;12.138;2023-06-14T00:45:20;0.73;;;0.73;;
12181;SDS011;6154;51.550;12.138;2023-06-14T00:47:49;1.17;;;0.80;;
12181;SDS011;6154;51.550;12.138;2023-06-14T00:50:19;1.20;;;1.10;;
12181;SDS011;6154;51.550;12.138;2023-06-14T00:52:48;1.00;;;0.90;;
12181;SDS011;6154;51.550;12.138;2023-06-14T00:55:17;5.12;;;1.25;;
12181;SDS011;6154;51.550;12.138;2023-06-14T00:57:47;3.37;;;1.25;;
12181;SDS011;6154;51.550;12.138;2023-06-14T01:00:16;1.55;;;1.12;;
12181;SDS011;6154;51.550;12.138;2023-06-14T01:03:03;2.67;;;1.33;;
12181;SDS011;6154;51.550;12.138;2023-06-14T01:05:50;1.30;;;1.20;;
12181;SDS011;6154;51.550;12.138;2023-06-14T01:08:38;2.80;;;1.30;;
12181;SDS011;6154;51.550;12.138;2023-06-14T01:11:16;1.37;;;1.27;;
12181;SDS011;6154;51.550;12.138;2023-06-14T01:13:50;3.37;;;1.20;;
12181;SDS011;6154;51.550;12.138;2023-06-14T01:16:21;3.08;;;1.65;;
12181;SDS011;6154;51.550;12.138;2023-06-14T01:18:50;3.67;;;1.52;;
12181;SDS011;6154;51.550;12.138;2023-06-14T01:21:23;1.35;;;1.00;;
12181;SDS011;6154;51.550;12.138;2023-06-14T01:23:53;1.75;;;0.95;;
12181;SDS011;6154;51.550;12.138;2023-06-14T01:26:24;1.42;;;1.10;;
12181;SDS011;6154;51.550;12.138;2023-06-14T01:28:59;1.40;;;1.12;;
12181;SDS011;6154;51.550;12.138;2023-06-14T01:31:27;1.12;;;1.02;;
12181;SDS011;6154;51.550;12.138;2023-06-14T01:33:56;1.42;;;1.20;;
12181;SDS011;6154;51.550;12.138;2023-06-14T01:36:24;1.12;;;1.08;;
12181;SDS011;6154;51.550;12.138;2023-06-14T01:38:58;2.17;;;1.05;;
12181;SDS011;6154;51.550;12.138;2023-06-14T01:41:27;1.80;;;1.30;;
12181;SDS011;6154;51.550;12.138;2023-06-14T01:43:57;2.12;;;1.33;;
12181;SDS011;6154;51.550;12.138;2023-06-14T01:46:26;1.23;;;1.12;;
12181;SDS011;6154;51.550;12.138;2023-06-14T01:48:54;1.00;;;0.88;;
12181;SDS011;6154;51.550;12.138;2023-06-14T01:51:23;2.25;;;1.17;;
12181;SDS011;6154;51.550;12.138;2023-06-14T01:53:51;1.50;;;1.30;;
12181;SDS011;6154;51.550;12.138;2023-06-14T01:56:20;2.15;;;1.40;;
12181;SDS011;6154;51.550;12.138;2023-06-14T01:58:48;1.45;;;1.35;;
12181;SDS011;6154;51.550;12.138;2023-06-14T02:01:16;1.87;;;1.10;;
12181;SDS011;6154;51.550;12.138;2023-06-14T02:03:46;2.62;;;1.10;;
12181;SDS011;6154;51.550;12.138;2023-06-14T02:06:15;1.20;;;1.10;;
12181;SDS011;6154;51.550;12.138;2023-06-14T02:08:43;2.47;;;1.10;;
12181;SDS011;6154;51.550;12.138;2023-06-14T02:11:11;1.02;;;0.95;;
12181;SDS011;6154;51.550;12.138;2023-06-14T02:13:41;2.42;;;1.23;;
12181;SDS011;6154;51.550;12.138;2023-06-14T02:16:09;2.95;;;1.10;;
12181;SDS011;6154;51.550;12.138;2023-06-14T02:18:37;2.35;;;1.12;;
12181;SDS011;6154;51.550;12.138;2023-06-14T02:21:06;1.90;;;1.20;;
12181;SDS011;6154;51.550;12.138;2023-06-14T02:23:34;3.03;;;1.45;;
12181;SDS011;6154;51.550;12.138;2023-06-14T02:26:02;1.45;;;0.98;;
12181;SDS011;6154;51.550;12.138;2023-06-14T02:28:33;3.60;;;1.05;;
12181;SDS011;6154;51.550;12.138;2023-06-14T02:31:03;2.00;;;1.25;;
12181;SDS011;6154;51.550;12.138;2023-06-14T02:33:32;3.12;;;1.58;;
12181;SDS011;6154;51.550;12.138;2023-06-14T02:36:00;2.28;;;1.12;;
12181;SDS011;6154;51.550;12.138;2023-06-14T02:38:29;1.33;;;1.15;;
12181;SDS011;6154;51.550;12.138;2023-06-14T02:40:58;1.35;;;1.25;;
12181;SDS011;6154;51.550;12.138;2023-06-14T02:43:28;1.58;;;1.17;;
12181;SDS011;6154;51.550;12.138;2023-06-14T02:45:57;1.55;;;1.08;;
12181;SDS011;6154;51.550;12.138;2023-06-14T02:48:27;1.23;;;1.10;;
12181;SDS011;6154;51.550;12.138;2023-06-14T02:50:55;2.17;;;1.40;;
12181;SDS011;6154;51.550;12.138;2023-06-14T02:53:24;1.48;;;1.30;;
12181;SDS011;6154;51.550;12.138;2023-06-14T02:55:53;1.83;;;1.40;;
12181;SDS011;6154;51.550;12.138;2023-06-14T02:58:22;4.55;;;1.30;;
12181;SDS011;6154;51.550;12.138;2023-06-14T03:00:52;2.72;;;1.33;;
12181;SDS011;6154;51.550;12.138;2023-06-14T03:03:20;1.30;;;1.20;;
12181;SDS011;6154;51.550;12.138;2023-06-14T03:05:52;2.42;;;1.15;;
12181;SDS011;6154;51.550;12.138;2023-06-14T03:08:21;1.20;;;1.10;;
12181;SDS011;6154;51.550;12.138;2023-06-14T03:10:54;5.85;;;1.40;;
12181;SDS011;6154;51.550;12.138;2023-06-14T03:13:23;3.08;;;1.35;;
12181;SDS011;6154;51.550;12.138;2023-06-14T03:15:51;2.22;;;1.45;;
12181;SDS011;6154;51.550;12.138;2023-06-14T03:18:20;2.00;;;1.35;;
12181;SDS011;6154;51.550;12.138;2023-06-14T03:20:55;1.75;;;1.42;;
12181;SDS011;6154;51.550;12.138;2023-06-14T03:23:25;3.12;;;1.52;;
12181;SDS011;6154;51.550;12.138;2023-06-14T03:25:53;1.77;;;1.40;;
12181;SDS011;6154;51.550;12.138;2023-06-14T03:28:23;2.03;;;1.35;;
12181;SDS011;6154;51.550;12.138;2023-06-14T03:30:51;2.08;;;1.02;;
12181;SDS011;6154;51.550;12.138;2023-06-14T03:33:20;1.35;;;1.17;;
12181;SDS011;6154;51.550;12.138;2023-06-14T03:35:49;1.42;;;1.33;;
12181;SDS011;6154;51.550;12.138;2023-06-14T03:38:19;1.60;;;1.30;;
12181;SDS011;6154;51.550;12.138;2023-06-14T03:40:48;1.75;;;1.30;;
12181;SDS011;6154;51.550;12.138;2023-06-14T03:43:16;1.95;;;1.23;;
12181;SDS011;6154;51.550;12.138;2023-06-14T03:45:44;1.30;;;1.20;;
12181;SDS011;6154;51.550;12.138;2023-06-14T03:48:13;1.40;;;1.30;;
12181;SDS011;6154;51.550;12.138;2023-06-14T03:50:42;1.37;;;1.10;;
12181;SDS011;6154;51.550;12.138;2023-06-14T03:53:11;1.73;;;1.37;;
12181;SDS011;6154;51.550;12.138;2023-06-14T03:55:41;2.67;;;1.17;;
12181;SDS011;6154;51.550;12.138;2023-06-14T03:58:12;1.48;;;1.30;;
12181;SDS011;6154;51.550;12.138;2023-06-14T04:00:41;3.60;;;1.70;;
12181;SDS011;6154;51.550;12.138;2023-06-14T04:03:10;1.62;;;1.37;;
12181;SDS011;6154;51.550;12.138;2023-06-14T04:05:40;3.42;;;1.70;;
12181;SDS011;6154;51.550;12.138;2023-06-14T04:08:09;4.45;;;1.58;;
12181;SDS011;6154;51.550;12.138;2023-06-14T04:10:37;1.80;;;1.62;;
12181;SDS011;6154;51.550;12.138;2023-06-14T04:13:06;2.42;;;1.80;;
12181;SDS011;6154;51.550;12.138;2023-06-14T04:15:35;2.35;;;1.55;;
12181;SDS011;6154;51.550;12.138;2023-06-14T04:18:04;2.37;;;1.60;;
12181;SDS011;6154;51.550;12.138;2023-06-14T04:20:32;1.75;;;1.58;;
12181;SDS011;6154;51.550;12.138;2023-06-14T04:23:14;2.30;;;2.08;;
12181;SDS011;6154;51.550;12.138;2023-06-14T04:25:44;2.17;;;1.70;;
12181;SDS011;6154;51.550;12.138;2023-06-14T04:28:16;3.15;;;1.98;;
12181;SDS011;6154;51.550;12.138;2023-06-14T04:30:45;3.25;;;2.00;;
12181;SDS011;6154;51.550;12.138;2023-06-14T04:33:14;4.20;;;1.50;;
12181;SDS011;6154;51.550;12.138;2023-06-14T04:35:45;2.35;;;2.12;;
12181;SDS011;6154;51.550;12.138;2023-06-14T04:38:14;1.98;;;1.67;;
12181;SDS011;6154;51.550;12.138;2023-06-14T04:40:43;3.60;;;1.85;;
12181;SDS011;6154;51.550;12.138;2023-06-14T04:43:13;3.47;;;1.90;;
12181;SDS011;6154;51.550;12.138;2023-06-14T04:45:45;2.67;;;1.90;;
12181;SDS011;6154;51.550;12.138;2023-06-14T04:48:14;2.65;;;1.80;;
12181;SDS011;6154;51.550;12.138;2023-06-14T04:50:44;2.95;;;1.87;;
12181;SDS011;6154;51.550;12.138;2023-06-14T04:53:12;2.47;;;2.08;;
12181;SDS011;6154;51.550;12.138;2023-06-14T04:55:41;2.10;;;1.90;;
12181;SDS011;6154;51.550;12.138;2023-06-14T04:58:11;2.60;;;1.90;;
12181;SDS011;6154;51.550;12.138;2023-06-14T05:00:40;3.87;;;2.53;;
12181;SDS011;6154;51.550;12.138;2023-06-14T05:03:11;2.58;;;1.95;;
12181;SDS011;6154;51.550;12.138;2023-06-14T05:05:40;2.75;;;1.95;;
12181;SDS011;6154;51.550;12.138;2023-06-14T05:08:09;3.87;;;2.10;;
12181;SDS011;6154;51.550;12.138;2023-06-14T05:10:37;3.00;;;2.35;;
12181;SDS011;6154;51.550;12.138;2023-06-14T05:13:06;2.85;;;2.08;;
12181;SDS011;6154;51.550;12.138;2023-06-14T05:15:34;3.62;;;2.30;;
12181;SDS011;6154;51.550;12.138;2023-06-14T05:18:02;4.22;;;2.10;;
12181;SDS011;6154;51.550;12.138;2023-06-14T05:20:32;2.85;;;2.30;;
12181;SDS011;6154;51.550;12.138;2023-06-14T05:23:01;3.85;;;2.05;;
12181;SDS011;6154;51.550;12.138;2023-06-14T05:25:29;2.55;;;2.15;;
12181;SDS011;6154;51.550;12.138;2023-06-14T05:27:57;2.87;;;2.20;;
12181;SDS011;6154;51.550;12.138;2023-06-14T05:30:25;2.72;;;2.12;;
12181;SDS011;6154;51.550;12.138;2023-06-14T05:32:56;3.05;;;2.28;;
12181;SDS011;6154;51.550;12.138;2023-06-14T05:35:24;2.75;;;2.20;;
12181;SDS011;6154;51.550;12.138;2023-06-14T05:37:54;3.65;;;2.35;;
12181;SDS011;6154;51.550;12.138;2023-06-14T05:40:23;4.07;;;2.45;;
12181;SDS011;6154;51.550;12.138;2023-06-14T05:42:51;3.58;;;2.22;;
12181;SDS011;6154;51.550;12.138;2023-06-14T05:45:19;3.42;;;2.65;;
12181;SDS011;6154;51.550;12.138;2023-06-14T05:47:47;3.58;;;2.58;;
12181;SDS011;6154;51.550;12.138;2023-06-14T05:50:17;2.60;;;2.40;;
12181;SDS011;6154;51.550;12.138;2023-06-14T05:52:45;3.75;;;2.55;;
12181;SDS011;6154;51.550;12.138;2023-06-14T05:55:16;4.47;;;2.50;;
12181;SDS011;6154;51.550;12.138;2023-06-14T05:57:45;2.95;;;2.55;;
12181;SDS011;6154;51.550;12.138;2023-06-14T06:00:15;4.30;;;2.70;;
12181;SDS011;6154;51.550;12.138;2023-06-14T06:02:44;6.20;;;2.80;;
12181;SDS011;6154;51.550;12.138;2023-06-14T06:05:14;4.95;;;2.75;;
12181;SDS011;6154;51.550;12.138;2023-06-14T06:07:43;2.62;;;2.42;;
12181;SDS011;6154;51.550;12.138;2023-06-14T06:10:12;4.28;;;2.45;;
12181;SDS011;6154;51.550;12.138;2023-06-14T06:12:43;3.20;;;2.72;;
12181;SDS011;6154;51.550;12.138;2023-06-14T06:15:14;3.20;;;2.28;;
12181;SDS011;6154;51.550;12.138;2023-06-14T06:17:43;3.45;;;2.40;;
12181;SDS011;6154;51.550;12.138;2023-06-14T06:20:21;4.93;;;2.70;;
12181;SDS011;6154;51.550;12.138;2023-06-14T06:22:55;4.10;;;2.95;;
12181;SDS011;6154;51.550;12.138;2023-06-14T06:25:24;6.35;;;2.65;;
12181;SDS011;6154;51.550;12.138;2023-06-14T06:27:54;5.28;;;3.10;;
12181;SDS011;6154;51.550;12.138;2023-06-14T06:30:24;3.30;;;2.45;;
12181;SDS011;6154;51.550;12.138;2023-06-14T06:32:52;2.87;;;2.30;;
12181;SDS011;6154;51.550;12.138;2023-06-14T06:35:22;4.57;;;2.67;;
12181;SDS011;6154;51.550;12.138;2023-06-14T06:37:51;2.37;;;2.20;;
12181;SDS011;6154;51.550;12.138;2023-06-14T06:40:19;3.67;;;2.58;;
12181;SDS011;6154;51.550;12.138;2023-06-14T06:42:47;5.00;;;2.42;;
12181;SDS011;6154;51.550;12.138;2023-06-14T06:45:18;2.15;;;1.90;;
12181;SDS011;6154;51.550;12.138;2023-06-14T06:47:50;2.72;;;2.53;;
12181;SDS011;6154;51.550;12.138;2023-06-14T06:50:19;3.15;;;2.40;;
12181;SDS011;6154;51.550;12.138;2023-06-14T06:52:50;3.42;;;2.28;;
12181;SDS011;6154;51.550;12.138;2023-06-14T06:55:18;2.42;;;2.15;;
12181;SDS011;6154;51.550;12.138;2023-06-14T06:57:57;2.40;;;1.98;;
12181;SDS011;6154;51.550;12.138;2023-06-14T07:00:27;6.03;;;2.00;;
12181;SDS011;6154;51.550;12.138;2023-06-14T07:02:56;5.20;;;2.22;;
12181;SDS011;6154;51.550;12.138;2023-06-14T07:05:24;3.35;;;2.53;;
12181;SDS011;6154;51.550;12.138;2023-06-14T07:07:52;3.10;;;1.83;;
12181;SDS011;6154;51.550;12.138;2023-06-14T07:10:23;3.72;;;2.20;;
12181;SDS011;6154;51.550;12.138;2023-06-14T07:12:52;3.17;;;2.70;;
12181;SDS011;6154;51.550;12.138;2023-06-14T07:15:20;2.05;;;1.85;;
12181;SDS011;6154;51.550;12.138;2023-06-14T07:17:50;2.45;;;2.22;;
12181;SDS011;6154;51.550;12.138;2023-06-14T07:20:19;2.58;;;1.87;;
12181;SDS011;6154;51.550;12.138;2023-06-14T07:22:49;2.90;;;2.30;;
12181;SDS011;6154;51.550;12.138;2023-06-14T07:25:17;2.45;;;1.90;;
12181;SDS011;6154;51.550;12.138;2023-06-14T07:27:46;5.35;;;2.10;;
12181;SDS011;6154;51.550;12.138;2023-06-14T07:30:15;3.55;;;2.17;;
12181;SDS011;6154;51.550;12.138;2023-06-14T07:32:43;2.00;;;1.80;;
12181;SDS011;6154;51.550;12.138;2023-06-14T07:35:12;2.53;;;2.00;;
12181;SDS011;6154;51.550;12.138;2023-06-14T07:37:41;2.75;;;2.55;;
12181;SDS011;6154;51.550;12.138;2023-06-14T07:40:10;2.25;;;1.90;;
12181;SDS011;6154;51.550;12.138;2023-06-14T07:42:39;4.20;;;2.25;;
12181;SDS011;6154;51.550;12.138;2023-06-14T07:45:08;3.85;;;2.17;;
12181;SDS011;6154;51.550;12.138;2023-06-14T07:47:36;3.58;;;2.08;;
12181;SDS011;6154;51.550;12.138;2023-06-14T07:50:05;2.70;;;1.90;;
12181;SDS011;6154;51.550;12.138;2023-06-14T07:52:35;3.60;;;2.05;;
12181;SDS011;6154;51.550;12.138;2023-06-14T07:55:04;2.28;;;2.05;;
12181;SDS011;6154;51.550;12.138;2023-06-14T07:57:33;2.87;;;2.10;;
12181;SDS011;6154;51.550;12.138;2023-06-14T08:00:02;4.05;;;2.33;;
12181;SDS011;6154;51.550;12.138;2023-06-14T08:02:37;2.83;;;2.17;;
12181;SDS011;6154;51.550;12.138;2023-06-14T08:05:06;2.33;;;1.85;;
12181;SDS011;6154;51.550;12.138;2023-06-14T08:07:36;2.25;;;1.90;;
12181;SDS011;6154;51.550;12.138;2023-06-14T08:10:05;2.62;;;2.10;;
12181;SDS011;6154;51.550;12.138;2023-06-14T08:12:34;2.30;;;1.90;;
12181;SDS011;6154;51.550;12.138;2023-06-14T08:15:02;2.80;;;1.92;;
12181;SDS011;6154;51.550;12.138;2023-06-14T08:17:34;2.42;;;2.22;;
12181;SDS011;6154;51.550;12.138;2023-06-14T08:20:03;2.20;;;1.52;;
12181;SDS011;6154;51.550;12.138;2023-06-14T08:22:33;2.22;;;2.00;;
12181;SDS011;6154;51.550;12.138;2023-06-14T08:25:04;2.67;;;1.83;;
12181;SDS011;6154;51.550;12.138;2023-06-14T08:27:33;2.28;;;1.85;;
12181;SDS011;6154;51.550;12.138;2023-06-14T08:30:01;2.37;;;2.17;;
12181;SDS011;6154;51.550;12.138;2023-06-14T08:32:30;1.65;;;1.55;;
12181;SDS011;6154;51.550;12.138;2023-06-14T08:34:59;1.80;;;1.70;;
12181;SDS011;6154;51.550;12.138;2023-06-14T08:37:31;3.90;;;2.00;;
12181;SDS011;6154;51.550;12.138;2023-06-14T08:40:00;2.65;;;1.85;;
12181;SDS011;6154;51.550;12.138;2023-06-14T08:42:34;2.40;;;1.98;;
12181;SDS011;6154;51.550;12.138;2023-06-14T08:45:05;2.35;;;1.80;;
12181;SDS011;6154;51.550;12.138;2023-06-14T08:47:34;1.80;;;1.70;;
12181;SDS011;6154;51.550;12.138;2023-06-14T08:50:08;2.05;;;1.87;;
12181;SDS011;6154;51.550;12.138;2023-06-14T08:52:54;1.80;;;1.70;;
12181;SDS011;6154;51.550;12.138;2023-06-14T08:55:24;2.80;;;1.98;;
12181;SDS011;6154;51.550;12.138;2023-06-14T08:57:56;2.22;;;1.50;;
12181;SDS011;6154;51.550;12.138;2023-06-14T09:00:26;2.25;;;1.52;;
12181;SDS011;6154;51.550;12.138;2023-06-14T09:02:55;1.83;;;1.70;;
12181;SDS011;6154;51.550;12.138;2023-06-14T09:05:26;2.53;;;2.30;;
12181;SDS011;6154;51.550;12.138;2023-06-14T09:07:55;1.73;;;1.62;;
12181;SDS011;6154;51.550;12.138;2023-06-14T09:10:32;1.65;;;1.55;;
12181;SDS011;6154;51.550;12.138;2023-06-14T09:13:03;1.62;;;1.52;;
12181;SDS011;6154;51.550;12.138;2023-06-14T09:15:31;2.03;;;1.60;;
12181;SDS011;6154;51.550;12.138;2023-06-14T09:18:00;1.70;;;1.60;;
12181;SDS011;6154;51.550;12.138;2023-06-14T09:20:29;1.60;;;1.50;;
12181;SDS011;6154;51.550;12.138;2023-06-14T09:22:58;2.12;;;1.50;;
12181;SDS011;6154;51.550;12.138;2023-06-14T09:25:27;1.87;;;1.48;;
12181;SDS011;6154;51.550;12.138;2023-06-14T09:28:07;1.92;;;1.70;;
12181;SDS011;6154;51.550;12.138;2023-06-14T09:30:36;1.55;;;1.45;;
12181;SDS011;6154;51.550;12.138;2023-06-14T09:33:05;1.98;;;1.45;;
12181;SDS011;6154;51.550;12.138;2023-06-14T09:35:34;1.45;;;1.15;;
12181;SDS011;6154;51.550;12.138;2023-06-14T09:38:02;1.45;;;1.23;;
12181;SDS011;6154;51.550;12.138;2023-06-14T09:40:33;3.22;;;1.60;;
12181;SDS011;6154;51.550;12.138;2023-06-14T09:43:03;1.27;;;1.12;;
12181;SDS011;6154;51.550;12.138;2023-06-14T09:45:36;1.92;;;1.23;;
12181;SDS011;6154;51.550;12.138;2023-06-14T09:48:07;1.12;;;1.02;;
12181;SDS011;6154;51.550;12.138;2023-06-14T09:50:36;1.77;;;0.90;;
12181;SDS011;6154;51.550;12.138;2023-06-14T09:53:06;2.60;;;1.20;;
12181;SDS011;6154;51.550;12.138;2023-06-14T09:55:36;1.55;;;1.45;;
12181;SDS011;6154;51.550;12.138;2023-06-14T09:58:06;0.82;;;0.82;;
12181;SDS011;6154;51.550;12.138;2023-06-14T10:00:37;1.30;;;1.20;;
12181;SDS011;6154;51.550;12.138;2023-06-14T10:03:11;1.67;;;1.15;;
12181;SDS011;6154;51.550;12.138;2023-06-14T10:05:41;4.87;;;1.02;;
12181;SDS011;6154;51.550;12.138;2023-06-14T10:08:13;2.35;;;1.40;;
12181;SDS011;6154;51.550;12.138;2023-06-14T10:10:43;1.20;;;1.10;;
12181;SDS011;6154;51.550;12.138;2023-06-14T10:13:12;2.90;;;1.20;;
12181;SDS011;6154;51.550;12.138;2023-06-14T10:15:45;1.15;;;1.05;;
12181;SDS011;6154;51.550;12.138;2023-06-14T10:18:28;1.52;;;1.42;;
12181;SDS011;6154;51.550;12.138;2023-06-14T10:21:03;1.10;;;0.90;;
12181;SDS011;6154;51.550;12.138;2023-06-14T10:23:37;1.45;;;1.12;;
12181;SDS011;6154;51.550;12.138;2023-06-14T10:26:13;1.50;;;1.10;;
12181;SDS011;6154;51.550;12.138;2023-06-14T10:28:55;2.03;;;1.40;;
12181;SDS011;6154;51.550;12.138;2023-06-14T10:31:42;1.40;;;1.30;;
12181;SDS011;6154;51.550;12.138;2023-06-14T10:34:12;1.50;;;1.20;;
12181;SDS011;6154;51.550;12.138;2023-06-14T10:37:00;2.05;;;1.27;;
12181;SDS011;6154;51.550;12.138;2023-06-14T10:39:31;1.48;;;1.35;;
12181;SDS011;6154;51.550;12.138;2023-06-14T10:42:01;4.55;;;1.15;;
12181;SDS011;6154;51.550;12.138;2023-06-14T10:47:23;1.42;;;1.33;;
12181;SDS011;6154;51.550;12.138;2023-06-14T10:49:53;2.72;;;1.30;;
12181;SDS011;6154;51.550;12.138;2023-06-14T10:52:23;1.40;;;1.30;;
12181;SDS011;6154;51.550;12.138;2023-06-14T10:54:55;1.67;;;1.23;;
12181;SDS011;6154;51.550;12.138;2023-06-14T10:57:27;1.75;;;1.40;;
12181;SDS011;6154;51.550;12.138;2023-06-14T10:59:57;1.25;;;1.15;;
12181;SDS011;6154;51.550;12.138;2023-06-14T11:05:45;1.48;;;1.37;;
12181;SDS011;6154;51.550;12.138;2023-06-14T11:08:36;1.30;;;1.20;;
12181;SDS011;6154;51.550;12.138;2023-06-14T11:11:24;1.65;;;1.42;;
12181;SDS011;6154;51.550;12.138;2023-06-14T11:13:59;2.22;;;1.42;;
12181;SDS011;6154;51.550;12.138;2023-06-14T11:16:28;1.90;;;1.45;;
12181;SDS011;6154;51.550;12.138;2023-06-14T11:19:00;2.00;;;1.50;;
12181;SDS011;6154;51.550;12.138;2023-06-14T11:21:32;2.25;;;1.25;;
12181;SDS011;6154;51.550;12.138;2023-06-14T11:24:01;1.50;;;1.40;;
12181;SDS011;6154;51.550;12.138;2023-06-14T11:26:29;1.45;;;1.35;;
12181;SDS011;6154;51.550;12.138;2023-06-14T11:29:01;1.52;;;1.37;;
12181;SDS011;6154;51.550;12.138;2023-06-14T11:31:29;2.17;;;1.55;;
12181;SDS011;6154;51.550;12.138;2023-06-14T11:33:58;1.65;;;1.55;;
12181;SDS011;6154;51.550;12.138;2023-06-14T11:36:27;3.62;;;2.17;;
12181;SDS011;6154;51.550;12.138;2023-06-14T11:38:59;4.12;;;1.50;;
12181;SDS011;6154;51.550;12.138;2023-06-14T11:41:36;1.58;;;1.45;;
12181;SDS011;6154;51.550;12.138;2023-06-14T11:44:05;2.30;;;1.25;;
12181;SDS011;6154;51.550;12.138;2023-06-14T11:46:34;1.70;;;1.58;;
12181;SDS011;6154;51.550;12.138;2023-06-14T11:49:03;1.62;;;1.45;;
12181;SDS011;6154;51.550;12.138;2023-06-14T11:51:34;1.80;;;1.65;;
12181;SDS011;6154;51.550;12.138;2023-06-14T11:54:05;2.08;;;1.87;;
12181;SDS011;6154;51.550;12.138;2023-06-14T11:56:36;1.80;;;1.70;;
12181;SDS011;6154;51.550;12.138;2023-06-14T11:59:04;1.85;;;1.70;;
12181;SDS011;6154;51.550;12.138;2023-06-14T12:01:35;1.55;;;1.45;;
12181;SDS011;6154;51.550;12.138;2023-06-14T12:04:06;1.75;;;1.60;;
12181;SDS011;6154;51.550;12.138;2023-06-14T12:06:34;2.00;;;1.58;;
12181;SDS011;6154;51.550;12.138;2023-06-14T12:09:08;2.95;;;1.70;;
12181;SDS011;6154;51.550;12.138;2023-06-14T12:11:40;3.00;;;2.00;;
12181;SDS011;6154;51.550;12.138;2023-06-14T12:14:09;1.60;;;1.50;;
12181;SDS011;6154;51.550;12.138;2023-06-14T12:16:38;2.00;;;1.85;;
12181;SDS011;6154;51.550;12.138;2023-06-14T12:19:08;3.00;;;1.92;;
12181;SDS011;6154;51.550;12.138;2023-06-14T12:21:40;1.83;;;1.70;;
12181;SDS011;6154;51.550;12.138;2023-06-14T12:24:11;2.10;;;1.75;;
12181;SDS011;6154;51.550;12.138;2023-06-14T12:26:43;4.05;;;1.95;;
12181;SDS011;6154;51.550;12.138;2023-06-14T12:29:12;1.65;;;1.55;;
12181;SDS011;6154;51.550;12.138;2023-06-14T12:31:40;3.37;;;2.00;;
12181;SDS011;6154;51.550;12.138;2023-06-14T12:34:09;2.65;;;1.98;;
12181;SDS011;6154;51.550;12.138;2023-06-14T12:36:37;1.83;;;1.67;;
12181;SDS011;6154;51.550;12.138;2023-06-14T12:39:12;3.55;;;2.08;;
12181;SDS011;6154;51.550;12.138;2023-06-14T12:41:40;6.10;;;1.95;;
12181;SDS011;6154;51.550;12.138;2023-06-14T12:44:09;3.90;;;1.75;;
12181;SDS011;6154;51.550;12.138;2023-06-14T12:46:38;4.62;;;1.92;;
12181;SDS011;6154;51.550;12.138;2023-06-14T12:49:07;1.80;;;1.58;;
12181;SDS011;6154;51.550;12.138;2023-06-14T12:51:36;1.90;;;1.70;;
12181;SDS011;6154;51.550;12.138;2023-06-14T12:54:04;4.05;;;1.90;;
12181;SDS011;6154;51.550;12.138;2023-06-14T12:56:34;1.90;;;1.80;;
12181;SDS011;6154;51.550;12.138;2023-06-14T12:59:03;4.05;;;2.00;;
12181;SDS011;6154;51.550;12.138;2023-06-14T13:01:33;1.70;;;1.60;;
12181;SDS011;6154;51.550;12.138;2023-06-14T13:04:01;1.95;;;1.73;;
12181;SDS011;6154;51.550;12.138;2023-06-14T13:06:29;2.28;;;1.80;;
12181;SDS011;6154;51.550;12.138;2023-06-14T13:09:00;2.30;;;1.58;;
12181;SDS011;6154;51.550;12.138;2023-06-14T13:11:28;2.50;;;1.70;;
12181;SDS011;6154;51.550;12.138;2023-06-14T13:13:57;2.65;;;1.55;;
12181;SDS011;6154;51.550;12.138;2023-06-14T13:16:29;2.00;;;1.80;;
12181;SDS011;6154;51.550;12.138;2023-06-14T13:18:58;2.37;;;1.70;;
12181;SDS011;6154;51.550;12.138;2023-06-14T13:21:26;2.03;;;1.52;;
12181;SDS011;6154;51.550;12.138;2023-06-14T13:23:54;1.48;;;1.37;;
12181;SDS011;6154;51.550;12.138;2023-06-14T13:26:22;1.60;;;1.50;;
12181;SDS011;6154;51.550;12.138;2023-06-14T13:28:50;2.08;;;1.90;;
12181;SDS011;6154;51.550;12.138;2023-06-14T13:31:20;3.67;;;1.98;;
12181;SDS011;6154;51.550;12.138;2023-06-14T13:33:48;2.00;;;1.80;;
12181;SDS011;6154;51.550;12.138;2023-06-14T13:36:16;3.95;;;2.03;;
12181;SDS011;6154;51.550;12.138;2023-06-14T13:38:47;5.25;;;2.47;;
12181;SDS011;6154;51.550;12.138;2023-06-14T13:41:15;6.62;;;1.77;;
12181;SDS011;6154;51.550;12.138;2023-06-14T13:43:43;1.80;;;1.70;;
12181;SDS011;6154;51.550;12.138;2023-06-14T13:46:11;1.90;;;1.70;;
12181;SDS011;6154;51.550;12.138;2023-06-14T13:48:41;3.53;;;1.77;;
12181;SDS011;6154;51.550;12.138;2023-06-14T13:51:09;2.85;;;1.65;;
12181;SDS011;6154;51.550;12.138;2023-06-14T13:53:39;1.90;;;1.70;;
12181;SDS011;6154;51.550;12.138;2023-06-14T13:56:07;2.53;;;1.58;;
12181;SDS011;6154;51.550;12.138;2023-06-14T13:58:37;2.35;;;1.75;;
12181;SDS011;6154;51.550;12.138;2023-06-14T14:01:06;3.00;;;1.48;;
12181;SDS011;6154;51.550;12.138;2023-06-14T14:03:35;1.90;;;1.62;;
12181;SDS011;6154;51.550;12.138;2023-06-14T14:06:05;1.73;;;1.58;;
12181;SDS011;6154;51.550;12.138;2023-06-14T14:08:34;1.62;;;1.52;;
12181;SDS011;6154;51.550;12.138;2023-06-14T14:11:07;1.90;;;1.40;;
12181;SDS011;6154;51.550;12.138;2023-06-14T14:13:36;2.12;;;1.80;;
12181;SDS011;6154;51.550;12.138;2023-06-14T14:16:05;3.40;;;1.77;;
12181;SDS011;6154;51.550;12.138;2023-06-14T14:18:33;1.65;;;1.50;;
12181;SDS011;6154;51.550;12.138;2023-06-14T14:21:02;2.10;;;1.60;;
12181;SDS011;6154;51.550;12.138;2023-06-14T14:23:31;4.12;;;1.75;;
12181;SDS011;6154;51.550;12.138;2023-06-14T14:26:00;2.35;;;1.25;;
12181;SDS011;6154;51.550;12.138;2023-06-14T14:28:31;1.80;;;1.60;;
12181;SDS011;6154;51.550;12.138;2023-06-14T14:30:59;1.85;;;1.75;;
12181;SDS011;6154;51.550;12.138;2023-06-14T14:33:27;8.25;;;2.08;;
12181;SDS011;6154;51.550;12.138;2023-06-14T14:35:55;1.77;;;1.67;;
12181;SDS011;6154;51.550;12.138;2023-06-14T14:38:23;2.50;;;1.83;;
12181;SDS011;6154;51.550;12.138;2023-06-14T14:40:53;3.83;;;1.50;;
12181;SDS011;6154;51.550;12.138;2023-06-14T14:43:21;2.15;;;1.95;;
12181;SDS011;6154;51.550;12.138;2023-06-14T14:45:49;1.67;;;1.55;;
12181;SDS011;6154;51.550;12.138;2023-06-14T14:48:17;1.65;;;1.37;;
12181;SDS011;6154;51.550;12.138;2023-06-14T14:50:46;1.42;;;1.33;;
12181;SDS011;6154;51.550;12.138;2023-06-14T14:53:15;1.60;;;1.40;;
12181;SDS011;6154;51.550;12.138;2023-06-14T14:55:44;5.18;;;1.80;;
12181;SDS011;6154;51.550;12.138;2023-06-14T14:58:14;1.95;;;1.70;;
12181;SDS011;6154;51.550;12.138;2023-06-14T15:00:44;1.48;;;1.37;;
12181;SDS011;6154;51.550;12.138;2023-06-14T15:03:13;1.70;;;1.52;;
12181;SDS011;6154;51.550;12.138;2023-06-14T15:05:41;1.67;;;1.58;;
12181;SDS011;6154;51.550;12.138;2023-06-14T15:08:09;1.95;;;1.50;;
12181;SDS011;6154;51.550;12.138;2023-06-14T15:10:39;3.00;;;1.58;;